Time;durP1;ratioP1;P1;durP2;ratioP2;P2;SDS_P1;SDS_P2;PMS_P1;PMS_P2;Temp;Humidity;BMP_temperature;BMP_pressure;BME280_temperature;BME280_humidity;BME280_pressure;Samples;Min_cycle;Max_cycle;Signal;HPM_P1;HPM_P2
2022/08/04 00:01:59;;;;;;;;;;;;;;;;;;4889247;29;19939;-69
2022/08/04 00:04:26;;;;;;;;;;;;;;;;;;4888885;29;19951;-70
2022/08/04 00:06:54;;;;;;;;;;;;;;;;;;4891048;29;19935;-69
2022/08/04 00:09:21;;;;;;;;;;;;;;;;;;4889713;29;19934;-69
2022/08/04 00:11:48;;;;;;;;;;;;;;;;;;4885661;29;19932;-70
2022/08/04 00:14:15;;;;;;;;;;;;;;;;;;4886414;29;19931;-70
2022/08/04 00:16:43;;;;;;;;;;;;;;;;;;4888850;29;19943;-70
2022/08/04 00:19:10;;;;;;;;;;;;;;;;;;4886524;29;20042;-70
2022/08/04 00:21:37;;;;;;;;;;;;;;;;;;4887882;29;19936;-70
2022/08/04 00:24:04;;;;;;;;;;;;;;;;;;4887529;29;19939;-70
2022/08/04 00:26:38;;;;;;;;;;;;;;;;;;4887425;29;19931;-70
2022/08/04 00:29:05;;;;;;;;;;;;;;;;;;4891390;29;19927;-71
2022/08/04 00:31:33;;;;;;;;;;;;;;;;;;4885301;29;19982;-70
2022/08/04 00:34:20;;;;;;;;;;;;;;;;;;4888086;29;20026;-70
2022/08/04 00:36:47;;;;;;;;;;;;;;;;;;4887395;29;20398;-70
2022/08/04 00:39:14;;;;;;;;;;;;;;;;;;4878572;29;19931;-70
2022/08/04 00:41:42;;;;;;;;;;;;;;;;;;4870818;29;19935;-70
2022/08/04 00:44:22;;;;;;;;;;;;;;;;;;4890730;29;19936;-70
2022/08/04 00:46:50;;;;;;;;;;;;;;;;;;4888781;29;19927;-70
2022/08/04 00:49:17;;;;;;;;;;;;;;;;;;4888475;29;20399;-71
2022/08/04 00:51:44;;;;;;;;;;;;;;;;;;4883544;29;20014;-71
2022/08/04 00:54:12;;;;;;;;;;;;;;;;;;4883306;29;19931;-70
2022/08/04 00:56:39;;;;;;;;;;;;;;;;;;4882322;29;20404;-70
2022/08/04 00:59:06;;;;;;;;;;;;;;;;;;4884448;29;19939;-70
2022/08/04 01:01:34;;;;;;;;;;;;;;;;;;4900521;23;19993;-82
2022/08/04 01:04:01;;;;;;;;;;;;;;;;;;4867806;29;20334;-82
2022/08/04 01:06:29;;;;;;;;;;;;;;;;;;4876009;29;19936;-82
2022/08/04 01:08:56;;;;;;;;;;;;;;;;;;4882889;29;19938;-82
2022/08/04 01:11:23;;;;;;;;;;;;;;;;;;4874200;29;19927;-83
2022/08/04 01:13:51;;;;;;;;;;;;;;;;;;4863977;29;20314;-82
2022/08/04 01:16:18;;;;;;;;;;;;;;;;;;4865064;29;20340;-83
2022/08/04 01:18:45;;;;;;;;;;;;;;;;;;4878823;29;19932;-84
2022/08/04 01:21:13;;;;;;;;;;;;;;;;;;4883358;29;19938;-83
2022/08/04 01:23:40;;;;;;;;;;;;;;;;;;4869503;29;19928;-83
2022/08/04 01:26:07;;;;;;;;;;;;;;;;;;4877977;29;19943;-82
2022/08/04 01:28:55;;;;;;;;;;;;;;;;;;4862503;29;19984;-82
2022/08/04 01:31:22;;;;;;;;;;;;;;;;;;4871403;29;19928;-83
2022/08/04 01:33:49;;;;;;;;;;;;;;;;;;4877854;29;19932;-83
2022/08/04 01:36:30;;;;;;;;;;;;;;;;;;4868273;29;19927;-83
2022/08/04 01:38:57;;;;;;;;;;;;;;;;;;4873231;29;20022;-83
2022/08/04 01:41:24;;;;;;;;;;;;;;;;;;4871806;29;19931;-83
2022/08/04 01:43:59;;;;;;;;;;;;;;;;;;4877005;29;20391;-84
2022/08/04 01:46:26;;;;;;;;;;;;;;;;;;4860292;29;20259;-82
2022/08/04 01:48:53;;;;;;;;;;;;;;;;;;4863521;29;20038;-83
2022/08/04 01:51:21;;;;;;;;;;;;;;;;;;4867699;29;20179;-83
2022/08/04 01:53:48;;;;;;;;;;;;;;;;;;4877973;29;20440;-83
2022/08/04 01:56:15;;;;;;;;;;;;;;;;;;4862977;29;19928;-83
2022/08/04 01:58:43;;;;;;;;;;;;;;;;;;4886613;29;19990;-83
2022/08/04 02:01:12;;;;;;;;;;;;;;;;;;4871643;29;20291;-82
2022/08/04 02:03:40;;;;;;;;;;;;;;;;;;4866352;29;19956;-83
2022/08/04 02:06:27;;;;;;;;;;;;;;;;;;4864464;29;19932;-82
2022/08/04 02:08:55;;;;;;;;;;;;;;;;;;4874940;29;19932;-83
2022/08/04 02:11:22;;;;;;;;;;;;;;;;;;4870937;29;19943;-82
2022/08/04 02:13:51;;;;;;;;;;;;;;;;;;4868090;29;19970;-82
2022/08/04 02:16:18;;;;;;;;;;;;;;;;;;4870384;29;20026;-83
2022/08/04 02:18:45;;;;;;;;;;;;;;;;;;4873833;29;19954;-83
2022/08/04 02:21:12;;;;;;;;;;;;;;;;;;4869966;29;19963;-83
2022/08/04 02:23:39;;;;;;;;;;;;;;;;;;4869364;29;19932;-83
2022/08/04 02:26:07;;;;;;;;;;;;;;;;;;4863003;29;20167;-82
2022/08/04 02:28:34;;;;;;;;;;;;;;;;;;4866358;29;20023;-83
2022/08/04 02:31:01;;;;;;;;;;;;;;;;;;4874278;29;19999;-83
2022/08/04 02:33:28;;;;;;;;;;;;;;;;;;4875846;29;19938;-82
2022/08/04 02:35:58;;;;;;;;;;;;;;;;;;4885095;29;19916;-82
2022/08/04 02:38:26;;;;;;;;;;;;;;;;;;4881567;29;19938;-83
2022/08/04 02:40:55;;;;;;;;;;;;;;;;;;4892518;29;19932;-83
2022/08/04 02:43:25;;;;;;;;;;;;;;;;;;4901302;29;19931;-83
2022/08/04 02:46:12;;;;;;;;;;;;;;;;;;4903009;29;19966;-84
2022/08/04 02:48:43;;;;;;;;;;;;;;;;;;4875503;29;19916;-83
2022/08/04 02:51:10;;;;;;;;;;;;;;;;;;4880441;29;19999;-83
2022/08/04 02:53:38;;;;;;;;;;;;;;;;;;4880299;29;19936;-83
2022/08/04 02:56:05;;;;;;;;;;;;;;;;;;4885240;29;19916;-83
2022/08/04 02:58:32;;;;;;;;;;;;;;;;;;4891158;29;19991;-83
2022/08/04 03:01:00;;;;;;;;;;;;;;;;;;4879230;29;20470;-83
2022/08/04 03:03:27;;;;;;;;;;;;;;;;;;4867875;29;19943;-83
2022/08/04 03:05:54;;;;;;;;;;;;;;;;;;4870571;29;20365;-84
2022/08/04 03:08:26;;;;;;;;;;;;;;;;;;4864642;29;19939;-83
2022/08/04 03:10:54;;;;;;;;;;;;;;;;;;4877393;29;20031;-83
2022/08/04 03:13:21;;;;;;;;;;;;;;;;;;4865786;29;20027;-83
2022/08/04 03:15:48;;;;;;;;;;;;;;;;;;4876042;29;19931;-83
2022/08/04 03:18:16;;;;;;;;;;;;;;;;;;4884274;29;19979;-85
2022/08/04 03:20:43;;;;;;;;;;;;;;;;;;4880940;29;19936;-83
2022/08/04 03:23:10;;;;;;;;;;;;;;;;;;4869523;29;19956;-83
2022/08/04 03:25:40;;;;;;;;;;;;;;;;;;4866035;29;19942;-83
2022/08/04 03:28:23;;;;;;;;;;;;;;;;;;4871703;29;20471;-83
2022/08/04 03:30:52;;;;;;;;;;;;;;;;;;4848826;29;19944;-84
2022/08/04 03:33:19;;;;;;;;;;;;;;;;;;4852040;29;19995;-83
2022/08/04 03:35:47;;;;;;;;;;;;;;;;;;4860287;29;20409;-83
2022/08/04 03:38:14;;;;;;;;;;;;;;;;;;4856775;29;20419;-85
2022/08/04 03:40:41;;;;;;;;;;;;;;;;;;4849538;29;20431;-83
2022/08/04 03:43:09;;;;;;;;;;;;;;;;;;4859796;29;20152;-83
2022/08/04 03:45:36;;;;;;;;;;;;;;;;;;4872188;29;19939;-83
2022/08/04 03:48:03;;;;;;;;;;;;;;;;;;4876485;29;20374;-84
2022/08/04 03:50:33;;;;;;;;;;;;;;;;;;4860967;29;20397;-84
2022/08/04 03:53:08;;;;;;;;;;;;;;;;;;4870945;29;20446;-82
2022/08/04 03:55:35;;;;;;;;;;;;;;;;;;4871594;29;19985;-83
2022/08/04 03:58:03;;;;;;;;;;;;;;;;;;4875497;29;20355;-83
2022/08/04 04:00:30;;;;;;;;;;;;;;;;;;4872076;29;19928;-83
2022/08/04 04:02:57;;;;;;;;;;;;;;;;;;4872222;29;19932;-82
2022/08/04 04:05:24;;;;;;;;;;;;;;;;;;4874911;29;19935;-84
2022/08/04 04:07:52;;;;;;;;;;;;;;;;;;4885265;29;20457;-82
2022/08/04 04:10:25;;;;;;;;;;;;;;;;;;4880689;29;20022;-82
2022/08/04 04:12:55;;;;;;;;;;;;;;;;;;4880359;29;20023;-83
2022/08/04 04:15:22;;;;;;;;;;;;;;;;;;4883088;29;20177;-83
2022/08/04 04:17:49;;;;;;;;;;;;;;;;;;4864099;29;19961;-83
2022/08/04 04:20:17;;;;;;;;;;;;;;;;;;4861743;29;20299;-83
2022/08/04 04:22:46;;;;;;;;;;;;;;;;;;4880611;29;19982;-84
2022/08/04 04:25:14;;;;;;;;;;;;;;;;;;4864453;29;19928;-82
2022/08/04 04:27:41;;;;;;;;;;;;;;;;;;4862340;29;20020;-83
2022/08/04 04:30:08;;;;;;;;;;;;;;;;;;4874624;29;19932;-82
2022/08/04 04:32:36;;;;;;;;;;;;;;;;;;4858061;29;19967;-81
2022/08/04 04:35:03;;;;;;;;;;;;;;;;;;4861365;29;19964;-84
2022/08/04 04:37:31;;;;;;;;;;;;;;;;;;4863469;29;19938;-83
2022/08/04 04:39:58;;;;;;;;;;;;;;;;;;4869551;29;19934;-84
2022/08/04 04:42:25;;;;;;;;;;;;;;;;;;4863417;29;19980;-82
2022/08/04 04:44:53;;;;;;;;;;;;;;;;;;4863702;29;20050;-83
2022/08/04 04:47:22;;;;;;;;;;;;;;;;;;4877384;29;19928;-83
2022/08/04 04:50:09;;;;;;;;;;;;;;;;;;4875092;29;19943;-83
2022/08/04 04:52:36;;;;;;;;;;;;;;;;;;4876747;29;20004;-83
2022/08/04 04:55:04;;;;;;;;;;;;;;;;;;4865936;29;20035;-84
2022/08/04 04:57:33;;;;;;;;;;;;;;;;;;4865754;29;19936;-84
2022/08/04 05:00:20;;;;;;;;;;;;;;;;;;4879890;29;19940;-84
2022/08/04 05:02:48;;;;;;;;;;;;;;;;;;4864501;29;20509;-84
2022/08/04 05:05:15;;;;;;;;;;;;;;;;;;4869402;29;20402;-83
2022/08/04 05:07:42;;;;;;;;;;;;;;;;;;4874737;29;19928;-85
2022/08/04 05:10:10;;;;;;;;;;;;;;;;;;4869934;29;20011;-83
2022/08/04 05:12:37;;;;;;;;;;;;;;;;;;4862285;29;19928;-83
2022/08/04 05:15:24;;;;;;;;;;;;;;;;;;4874978;29;19939;-84
2022/08/04 05:17:52;;;;;;;;;;;;;;;;;;4866455;29;19955;-83
2022/08/04 05:20:22;;;;;;;;;;;;;;;;;;4881717;29;20398;-82
2022/08/04 05:22:50;;;;;;;;;;;;;;;;;;4865397;29;20470;-83
2022/08/04 05:25:17;;;;;;;;;;;;;;;;;;4862627;29;20414;-83
2022/08/04 05:27:44;;;;;;;;;;;;;;;;;;4863625;29;19932;-83
2022/08/04 05:30:11;;;;;;;;;;;;;;;;;;4864476;29;19951;-83
2022/08/04 05:32:39;;;;;;;;;;;;;;;;;;4872798;29;19936;-83
2022/08/04 05:35:06;;;;;;;;;;;;;;;;;;4877235;29;19928;-83
2022/08/04 05:37:33;;;;;;;;;;;;;;;;;;4856423;29;19975;-83
2022/08/04 05:40:02;;;;;;;;;;;;;;;;;;4857016;29;19958;-83
2022/08/04 05:42:29;;;;;;;;;;;;;;;;;;4871181;29;20022;-84
2022/08/04 05:44:57;;;;;;;;;;;;;;;;;;4863078;29;19940;-82
2022/08/04 05:47:24;;;;;;;;;;;;;;;;;;4848466;29;19934;-83
2022/08/04 05:49:51;;;;;;;;;;;;;;;;;;4856970;29;19938;-84
2022/08/04 05:52:27;;;;;;;;;;;;;;;;;;4862143;29;19959;-84
2022/08/04 05:54:55;;;;;;;;;;;;;;;;;;4885340;29;19949;-85
2022/08/04 05:57:23;;;;;;;;;;;;;;;;;;4864310;29;19947;-84
2022/08/04 05:59:52;;;;;;;;;;;;;;;;;;4877763;29;19932;-83
2022/08/04 06:02:19;;;;;;;;;;;;;;;;;;4877871;29;20319;-83
2022/08/04 06:04:47;;;;;;;;;;;;;;;;;;4874133;29;19928;-85
2022/08/04 06:07:14;;;;;;;;;;;;;;;;;;4863930;29;19965;-84
2022/08/04 06:09:41;;;;;;;;;;;;;;;;;;4877607;29;19935;-84
2022/08/04 06:12:09;;;;;;;;;;;;;;;;;;4876162;29;19978;-84
2022/08/04 06:14:36;;;;;;;;;;;;;;;;;;4859636;29;19932;-85
2022/08/04 06:17:04;;;;;;;;;;;;;;;;;;4865661;29;19956;-84
2022/08/04 06:19:54;;;;;;;;;;;;;;;;;;4876493;29;19932;-84
2022/08/04 06:22:30;;;;;;;;;;;;;;;;;;4882588;29;19979;-84
2022/08/04 06:24:57;;;;;;;;;;;;;;;;;;4856328;29;20047;-84
2022/08/04 06:27:25;;;;;;;;;;;;;;;;;;4865767;29;19931;-85
2022/08/04 06:29:53;;;;;;;;;;;;;;;;;;4866399;29;20309;-85
2022/08/04 06:32:26;;;;;;;;;;;;;;;;;;4859099;29;19995;-83
2022/08/04 06:35:03;;;;;;;;;;;;;;;;;;4861212;29;20403;-83
2022/08/04 06:37:31;;;;;;;;;;;;;;;;;;4858599;29;19932;-85
2022/08/04 06:40:09;;;;;;;;;;;;;;;;;;4853380;29;19970;-84
2022/08/04 06:42:56;;;;;;;;;;;;;;;;;;4860469;29;19942;-84
2022/08/04 06:45:29;;;;;;;;;;;;;;;;;;4855738;29;19932;-85
2022/08/04 06:47:57;;;;;;;;;;;;;;;;;;4860198;29;20022;-84
2022/08/04 06:50:25;;;;;;;;;;;;;;;;;;4863485;29;19955;-86
2022/08/04 06:53:13;;;;;;;;;;;;;;;;;;4864021;29;19932;-84
2022/08/04 06:55:44;;;;;;;;;;;;;;;;;;4880544;29;19916;-84
2022/08/04 06:58:17;;;;;;;;;;;;;;;;;;4893948;29;20127;-84
2022/08/04 07:01:05;;;;;;;;;;;;;;;;;;4895790;23;20027;-71
2022/08/04 07:03:32;;;;;;;;;;;;;;;;;;4878676;29;20016;-71
2022/08/04 07:05:59;;;;;;;;;;;;;;;;;;4879564;29;19941;-71
2022/08/04 07:08:32;;;;;;;;;;;;;;;;;;4880682;29;19943;-70
2022/08/04 07:11:00;;;;;;;;;;;;;;;;;;4861982;29;20333;-71
2022/08/04 07:13:28;;;;;;;;;;;;;;;;;;4862520;29;20392;-71
2022/08/04 07:15:55;;;;;;;;;;;;;;;;;;4860661;29;19939;-71
2022/08/04 07:18:22;;;;;;;;;;;;;;;;;;4865460;29;20022;-71
2022/08/04 07:20:50;;;;;;;;;;;;;;;;;;4864311;29;20403;-71
2022/08/04 07:23:18;;;;;;;;;;;;;;;;;;4866501;29;19936;-71
2022/08/04 07:25:45;;;;;;;;;;;;;;;;;;4869128;29;19954;-71
2022/08/04 07:28:27;;;;;;;;;;;;;;;;;;4871154;29;19939;-71
2022/08/04 07:30:54;;;;;;;;;;;;;;;;;;4865121;29;19928;-69
2022/08/04 07:33:21;;;;;;;;;;;;;;;;;;4864732;29;19975;-69
2022/08/04 07:35:49;;;;;;;;;;;;;;;;;;4866175;29;19950;-69
2022/08/04 07:38:36;;;;;;;;;;;;;;;;;;4867408;29;20467;-69
2022/08/04 07:41:14;;;;;;;;;;;;;;;;;;4875202;29;19935;-69
2022/08/04 07:44:02;;;;;;;;;;;;;;;;;;4866401;29;19932;-69
2022/08/04 07:46:29;;;;;;;;;;;;;;;;;;4864949;29;19971;-69
2022/08/04 07:48:58;;;;;;;;;;;;;;;;;;4862822;29;20385;-69
2022/08/04 07:51:25;;;;;;;;;;;;;;;;;;4863810;29;19928;-70
2022/08/04 07:53:52;;;;;;;;;;;;;;;;;;4859360;29;19932;-69
2022/08/04 07:56:22;;;;;;;;;;;;;;;;;;4863958;29;20400;-70
2022/08/04 07:58:49;;;;;;;;;;;;;;;;;;4865446;29;19932;-70
2022/08/04 08:01:16;;;;;;;;;;;;;;;;;;4868015;29;19936;-70
2022/08/04 08:03:44;;;;;;;;;;;;;;;;;;4866279;29;19934;-70
2022/08/04 08:06:11;;;;;;;;;;;;;;;;;;4865303;29;19942;-70
2022/08/04 08:08:59;;;;;;;;;;;;;;;;;;4863891;29;19939;-69
2022/08/04 08:11:38;;;;;;;;;;;;;;;;;;4866992;29;19959;-69
2022/08/04 08:14:25;;;;;;;;;;;;;;;;;;4873839;29;19931;-71
2022/08/04 08:16:52;;;;;;;;;;;;;;;;;;4875997;29;19928;-71
2022/08/04 08:19:20;;;;;;;;;;;;;;;;;;4870680;29;19990;-70
2022/08/04 08:21:48;;;;;;;;;;;;;;;;;;4872636;29;19943;-70
2022/08/04 08:24:25;;;;;;;;;;;;;;;;;;4875260;29;19932;-70
2022/08/04 08:26:53;;;;;;;;;;;;;;;;;;4870571;29;20312;-71
2022/08/04 08:29:20;;;;;;;;;;;;;;;;;;4872511;29;19936;-71
2022/08/04 08:31:47;;;;;;;;;;;;;;;;;;4878045;29;19938;-71
2022/08/04 08:34:24;;;;;;;;;;;;;;;;;;4870934;29;19936;-70
2022/08/04 08:36:54;;;;;;;;;;;;;;;;;;4871918;29;19931;-71
2022/08/04 08:39:21;;;;;;;;;;;;;;;;;;4871527;29;19928;-71
2022/08/04 08:41:50;;;;;;;;;;;;;;;;;;4871613;29;20388;-71
2022/08/04 08:44:18;;;;;;;;;;;;;;;;;;4874806;29;19932;-71
2022/08/04 08:46:56;;;;;;;;;;;;;;;;;;4877442;29;19931;-71
2022/08/04 08:49:23;;;;;;;;;;;;;;;;;;4878282;29;19931;-70
2022/08/04 08:52:10;;;;;;;;;;;;;;;;;;4867656;29;19959;-71
2022/08/04 08:54:38;;;;;;;;;;;;;;;;;;4870188;29;20027;-71
2022/08/04 08:57:05;;;;;;;;;;;;;;;;;;4876377;29;19932;-71
2022/08/04 08:59:32;;;;;;;;;;;;;;;;;;4875468;29;20400;-70
2022/08/04 09:01:59;;;;;;;;;;;;;;;;;;4874114;29;19967;-71
2022/08/04 09:04:27;;;;;;;;;;;;;;;;;;4872172;29;19931;-71
2022/08/04 09:06:58;;;;;;;;;;;;;;;;;;4874737;29;19927;-71
2022/08/04 09:09:25;;;;;;;;;;;;;;;;;;4880840;29;19940;-71
2022/08/04 09:11:52;;;;;;;;;;;;;;;;;;4881925;29;19946;-71
2022/08/04 09:14:21;;;;;;;;;;;;;;;;;;4869441;29;19942;-71
2022/08/04 09:16:49;;;;;;;;;;;;;;;;;;4868446;29;19928;-71
2022/08/04 09:19:16;;;;;;;;;;;;;;;;;;4868520;29;19928;-70
2022/08/04 09:21:49;;;;;;;;;;;;;;;;;;4865032;29;19935;-71
2022/08/04 09:24:16;;;;;;;;;;;;;;;;;;4884375;29;19931;-71
2022/08/04 09:27:02;;;;;;;;;;;;;;;;;;4871270;29;19942;-71
2022/08/04 09:29:30;;;;;;;;;;;;;;;;;;4868103;29;19936;-71
2022/08/04 09:31:59;;;;;;;;;;;;;;;;;;4882489;29;19927;-68
2022/08/04 09:34:32;;;;;;;;;;;;;;;;;;4871041;29;19932;-69
2022/08/04 09:36:59;;;;;;;;;;;;;;;;;;4870717;29;19928;-69
2022/08/04 09:39:27;;;;;;;;;;;;;;;;;;4873222;29;19971;-69
2022/08/04 09:41:54;;;;;;;;;;;;;;;;;;4865875;29;19958;-69
2022/08/04 09:44:22;;;;;;;;;;;;;;;;;;4874917;29;20018;-69
2022/08/04 09:47:09;;;;;;;;;;;;;;;;;;4874654;29;19932;-70
2022/08/04 09:49:36;;;;;;;;;;;;;;;;;;4873323;29;19927;-70
2022/08/04 09:52:03;;;;;;;;;;;;;;;;;;4872476;29;19975;-70
2022/08/04 09:54:31;;;;;;;;;;;;;;;;;;4874992;29;19935;-69
2022/08/04 09:56:58;;;;;;;;;;;;;;;;;;4873362;29;19978;-70
2022/08/04 09:59:25;;;;;;;;;;;;;;;;;;4865873;29;19975;-70
2022/08/04 10:01:52;;;;;;;;;;;;;;;;;;4875600;29;19946;-70
2022/08/04 10:04:26;;;;;;;;;;;;;;;;;;4874130;29;19934;-69
2022/08/04 10:06:53;;;;;;;;;;;;;;;;;;4870713;29;20606;-70
2022/08/04 10:09:20;;;;;;;;;;;;;;;;;;4874042;29;19928;-70
2022/08/04 10:11:47;;;;;;;;;;;;;;;;;;4872022;29;19938;-70
2022/08/04 10:14:21;;;;;;;;;;;;;;;;;;4872585;29;20428;-70
2022/08/04 10:16:49;;;;;;;;;;;;;;;;;;4864206;29;19928;-70
2022/08/04 10:19:16;;;;;;;;;;;;;;;;;;4867597;29;20067;-70
2022/08/04 10:21:43;;;;;;;;;;;;;;;;;;4871115;29;19931;-70
2022/08/04 10:24:25;;;;;;;;;;;;;;;;;;4881332;29;19936;-70
2022/08/04 10:26:53;;;;;;;;;;;;;;;;;;4864623;29;19932;-70
2022/08/04 10:29:23;;;;;;;;;;;;;;;;;;4870270;29;19927;-71
2022/08/04 10:31:51;;;;;;;;;;;;;;;;;;4866214;29;20030;-70
2022/08/04 10:34:19;;;;;;;;;;;;;;;;;;4860779;29;20038;-70
2022/08/04 10:36:46;;;;;;;;;;;;;;;;;;4861264;29;19939;-70
2022/08/04 10:39:13;;;;;;;;;;;;;;;;;;4867357;29;19962;-70
2022/08/04 10:42:00;;;;;;;;;;;;;;;;;;4863389;29;19936;-70
2022/08/04 10:44:28;;;;;;;;;;;;;;;;;;4868171;29;19928;-70
2022/08/04 10:46:55;;;;;;;;;;;;;;;;;;4869855;29;19938;-70
2022/08/04 10:49:23;;;;;;;;;;;;;;;;;;4865914;29;19936;-71
2022/08/04 10:51:50;;;;;;;;;;;;;;;;;;4868345;29;19942;-71
2022/08/04 10:54:25;;;;;;;;;;;;;;;;;;4864124;29;19946;-71
2022/08/04 10:56:52;;;;;;;;;;;;;;;;;;4872967;29;19932;-70
2022/08/04 10:59:22;;;;;;;;;;;;;;;;;;4867506;29;20038;-71
2022/08/04 11:01:50;;;;;;;;;;;;;;;;;;4861066;29;19932;-70
2022/08/04 11:04:29;;;;;;;;;;;;;;;;;;4872834;29;19936;-70
2022/08/04 11:06:56;;;;;;;;;;;;;;;;;;4867973;29;19928;-70
2022/08/04 11:09:23;;;;;;;;;;;;;;;;;;4868568;29;19938;-70
2022/08/04 11:11:51;;;;;;;;;;;;;;;;;;4871246;29;19936;-70
2022/08/04 11:14:27;;;;;;;;;;;;;;;;;;4870799;29;19931;-71
2022/08/04 11:16:55;;;;;;;;;;;;;;;;;;4873481;29;20416;-73
2022/08/04 11:19:22;;;;;;;;;;;;;;;;;;4866436;29;19979;-70
2022/08/04 11:21:50;;;;;;;;;;;;;;;;;;4862767;29;19939;-71
2022/08/04 11:24:18;;;;;;;;;;;;;;;;;;4863483;29;19943;-71
2022/08/04 11:26:47;;;;;;;;;;;;;;;;;;4861392;29;19939;-71
2022/08/04 11:29:15;;;;;;;;;;;;;;;;;;4863343;29;19982;-70
2022/08/04 11:31:42;;;;;;;;;;;;;;;;;;4864119;29;19954;-71
2022/08/04 11:34:12;;;;;;;;;;;;;;;;;;4855657;29;19951;-70
2022/08/04 11:36:39;;;;;;;;;;;;;;;;;;4867402;29;19936;-70
2022/08/04 11:39:07;;;;;;;;;;;;;;;;;;4867373;29;20357;-71
2022/08/04 11:41:34;;;;;;;;;;;;;;;;;;4867593;29;20388;-70
2022/08/04 11:44:02;;;;;;;;;;;;;;;;;;4869318;29;20034;-70
2022/08/04 11:46:36;;;;;;;;;;;;;;;;;;4872404;29;19932;-72
2022/08/04 11:49:03;;;;;;;;;;;;;;;;;;4872442;29;19932;-72
2022/08/04 11:51:30;;;;;;;;;;;;;;;;;;4872434;29;20325;-71
2022/08/04 11:53:58;;;;;;;;;;;;;;;;;;4868689;29;19936;-71
2022/08/04 11:56:25;;;;;;;;;;;;;;;;;;4871538;29;20043;-72
2022/08/04 11:59:03;;;;;;;;;;;;;;;;;;4856643;29;19967;-71
2022/08/04 12:01:30;;;;;;;;;;;;;;;;;;4874083;29;19928;-71
2022/08/04 12:03:58;;;;;;;;;;;;;;;;;;4872284;29;20031;-75
2022/08/04 12:06:29;;;;;;;;;;;;;;;;;;4873264;29;19932;-72
2022/08/04 12:08:56;;;;;;;;;;;;;;;;;;4870594;29;19931;-71
2022/08/04 12:11:23;;;;;;;;;;;;;;;;;;4872295;29;19927;-72
2022/08/04 12:13:51;;;;;;;;;;;;;;;;;;4871939;29;19932;-71
2022/08/04 12:16:18;;;;;;;;;;;;;;;;;;4872146;29;19932;-71
2022/08/04 12:18:45;;;;;;;;;;;;;;;;;;4872866;29;19928;-77
2022/08/04 12:21:12;;;;;;;;;;;;;;;;;;4875268;29;19939;-78
2022/08/04 12:23:41;;;;;;;;;;;;;;;;;;4872716;29;20396;-74
2022/08/04 12:26:08;;;;;;;;;;;;;;;;;;4872062;29;19931;-72
2022/08/04 12:28:35;;;;;;;;;;;;;;;;;;4869464;29;19936;-74
2022/08/04 12:31:23;;;;;;;;;;;;;;;;;;4871111;29;19936;-72
2022/08/04 12:33:50;;;;;;;;;;;;;;;;;;4865464;29;19928;-72
2022/08/04 12:36:31;;;;;;;;;;;;;;;;;;4881795;29;20549;-71
2022/08/04 12:38:59;;;;;;;;;;;;;;;;;;4870469;29;19963;-72
2022/08/04 12:41:26;;;;;;;;;;;;;;;;;;4874289;29;19983;-71
2022/08/04 12:43:54;;;;;;;;;;;;;;;;;;4866577;29;19976;-72
2022/08/04 12:46:21;;;;;;;;;;;;;;;;;;4877767;29;19932;-75
2022/08/04 12:48:48;;;;;;;;;;;;;;;;;;4863922;29;19928;-72
2022/08/04 12:51:16;;;;;;;;;;;;;;;;;;4865080;29;19932;-74
2022/08/04 12:53:57;;;;;;;;;;;;;;;;;;4864025;29;19976;-72
2022/08/04 12:56:24;;;;;;;;;;;;;;;;;;4856847;29;20022;-71
2022/08/04 12:58:52;;;;;;;;;;;;;;;;;;4860163;29;19938;-71
2022/08/04 13:05:49;;;;;;;;;;;;;;;;;;4811051;29;19937;-85
2022/08/04 13:12:21;;;;;;;;;;;;;;;;;;4879991;23;19988;-72
2022/08/04 13:14:57;;;;;;;;;;;;;;;;;;4879034;29;19992;-71
2022/08/04 13:17:34;;;;;;;;;;;;;;;;;;4885040;29;20232;-69
2022/08/04 13:20:02;;;;;;;;;;;;;;;;;;4892521;29;19927;-72
2022/08/04 13:22:30;;;;;;;;;;;;;;;;;;4884275;29;19935;-72
2022/08/04 13:24:57;;;;;;;;;;;;;;;;;;4879300;29;19959;-71
2022/08/04 13:27:46;;;;;;;;;;;;;;;;;;4878006;29;19932;-71
2022/08/04 13:30:14;;;;;;;;;;;;;;;;;;4887300;29;19991;-72
2022/08/04 13:32:48;;;;;;;;;;;;;;;;;;4886882;29;20015;-72
2022/08/04 13:35:16;;;;;;;;;;;;;;;;;;4880529;29;20377;-72
2022/08/04 13:37:43;;;;;;;;;;;;;;;;;;4893326;29;19935;-72
2022/08/04 13:40:10;;;;;;;;;;;;;;;;;;4875862;29;20019;-71
2022/08/04 13:42:38;;;;;;;;;;;;;;;;;;4876133;29;19931;-71
2022/08/04 13:45:05;;;;;;;;;;;;;;;;;;4875816;29;19931;-71
2022/08/04 13:47:32;;;;;;;;;;;;;;;;;;4877108;29;20382;-72
2022/08/04 13:50:00;;;;;;;;;;;;;;;;;;4880046;29;19974;-71
2022/08/04 13:52:37;;;;;;;;;;;;;;;;;;4897542;29;19932;-70
2022/08/04 13:55:04;;;;;;;;;;;;;;;;;;4884623;29;19931;-70
2022/08/04 13:57:31;;;;;;;;;;;;;;;;;;4885061;29;19927;-72
2022/08/04 13:59:58;;;;;;;;;;;;;;;;;;4884027;29;20030;-72
2022/08/04 14:02:26;;;;;;;;;;;;;;;;;;4894009;29;19974;-71
2022/08/04 14:04:55;;;;;;;;;;;;;;;;;;4886637;29;19931;-72
2022/08/04 14:07:22;;;;;;;;;;;;;;;;;;4887867;29;21066;-73
2022/08/04 14:09:49;;;;;;;;;;;;;;;;;;4882275;29;20279;-71
2022/08/04 14:12:35;;;;;;;;;;;;;;;;;;4889411;29;19936;-73
2022/08/04 14:15:12;;;;;;;;;;;;;;;;;;4882012;29;20030;-72
2022/08/04 14:17:40;;;;;;;;;;;;;;;;;;4888738;29;19940;-72
2022/08/04 14:20:07;;;;;;;;;;;;;;;;;;4892657;29;20399;-72
2022/08/04 14:22:34;;;;;;;;;;;;;;;;;;4890105;29;19928;-71
2022/08/04 14:25:03;;;;;;;;;;;;;;;;;;4890702;29;19931;-72
2022/08/04 14:27:30;;;;;;;;;;;;;;;;;;4885737;29;19942;-72
2022/08/04 14:29:57;;;;;;;;;;;;;;;;;;4879850;29;19932;-72
2022/08/04 14:32:24;;;;;;;;;;;;;;;;;;4886630;29;19927;-72
2022/08/04 14:34:53;;;;;;;;;;;;;;;;;;4880733;29;20312;-72
2022/08/04 14:37:21;;;;;;;;;;;;;;;;;;4890919;29;19931;-71
2022/08/04 14:39:49;;;;;;;;;;;;;;;;;;4887142;29;19928;-71
2022/08/04 14:42:36;;;;;;;;;;;;;;;;;;4884530;29;19932;-72
2022/08/04 14:45:04;;;;;;;;;;;;;;;;;;4889646;29;19964;-72
2022/08/04 14:47:31;;;;;;;;;;;;;;;;;;4885725;29;19975;-71
2022/08/04 14:49:58;;;;;;;;;;;;;;;;;;4892840;29;19932;-72
2022/08/04 14:52:25;;;;;;;;;;;;;;;;;;4892518;29;19934;-73
2022/08/04 14:54:53;;;;;;;;;;;;;;;;;;4884654;29;19986;-72
2022/08/04 14:57:20;;;;;;;;;;;;;;;;;;4887997;29;20365;-72
2022/08/04 14:59:47;;;;;;;;;;;;;;;;;;4892404;29;20312;-71
2022/08/04 15:02:25;;;;;;;;;;;;;;;;;;4890052;29;20186;-72
2022/08/04 15:04:55;;;;;;;;;;;;;;;;;;4882453;29;20377;-71
2022/08/04 15:07:22;;;;;;;;;;;;;;;;;;4886800;29;19935;-71
2022/08/04 15:09:50;;;;;;;;;;;;;;;;;;4886703;29;19959;-72
2022/08/04 15:12:17;;;;;;;;;;;;;;;;;;4887412;29;20437;-72
2022/08/04 15:14:44;;;;;;;;;;;;;;;;;;4889315;29;19927;-71
2022/08/04 15:17:11;;;;;;;;;;;;;;;;;;4891469;29;19932;-71
2022/08/04 15:19:55;;;;;;;;;;;;;;;;;;4885715;29;19931;-71
2022/08/04 15:22:23;;;;;;;;;;;;;;;;;;4878659;29;20343;-71
2022/08/04 15:24:50;;;;;;;;;;;;;;;;;;4883881;29;19971;-72
2022/08/04 15:27:18;;;;;;;;;;;;;;;;;;4886193;29;19940;-71
2022/08/04 15:29:46;;;;;;;;;;;;;;;;;;4888819;29;20003;-70
2022/08/04 15:32:26;;;;;;;;;;;;;;;;;;4890178;29;19931;-71
2022/08/04 15:34:53;;;;;;;;;;;;;;;;;;4891878;29;19936;-71
2022/08/04 15:37:21;;;;;;;;;;;;;;;;;;4882415;29;20376;-70
2022/08/04 15:39:48;;;;;;;;;;;;;;;;;;4889774;29;19938;-70
2022/08/04 15:42:15;;;;;;;;;;;;;;;;;;4880890;29;23307;-71
2022/08/04 15:44:47;;;;;;;;;;;;;;;;;;4886770;29;19936;-70
2022/08/04 15:47:14;;;;;;;;;;;;;;;;;;4882046;29;19946;-70
2022/08/04 15:49:42;;;;;;;;;;;;;;;;;;4885031;29;20041;-71
2022/08/04 15:52:09;;;;;;;;;;;;;;;;;;4882771;29;19931;-71
2022/08/04 15:54:38;;;;;;;;;;;;;;;;;;4879348;29;19936;-72
2022/08/04 15:57:08;;;;;;;;;;;;;;;;;;4887557;29;20740;-71
2022/08/04 15:59:36;;;;;;;;;;;;;;;;;;4888612;29;20033;-71
2022/08/04 16:02:03;;;;;;;;;;;;;;;;;;4886936;29;19953;-71
2022/08/04 16:04:47;;;;;;;;;;;;;;;;;;4888997;29;19935;-71
2022/08/04 16:07:14;;;;;;;;;;;;;;;;;;4884902;29;19932;-71
2022/08/04 16:09:41;;;;;;;;;;;;;;;;;;4878688;29;20053;-71
2022/08/04 16:12:12;;;;;;;;;;;;;;;;;;4884367;29;20400;-73
2022/08/04 16:14:40;;;;;;;;;;;;;;;;;;4888014;29;20042;-73
2022/08/04 16:17:07;;;;;;;;;;;;;;;;;;4890125;29;19931;-72
2022/08/04 16:19:34;;;;;;;;;;;;;;;;;;4887258;29;20000;-72
2022/08/04 16:22:02;;;;;;;;;;;;;;;;;;4888368;29;19938;-71
2022/08/04 16:24:29;;;;;;;;;;;;;;;;;;4878447;29;19927;-70
2022/08/04 16:26:56;;;;;;;;;;;;;;;;;;4879535;29;19961;-74
2022/08/04 16:29:23;;;;;;;;;;;;;;;;;;4872584;29;19931;-72
2022/08/04 16:31:51;;;;;;;;;;;;;;;;;;4880088;29;19934;-72
2022/08/04 16:34:18;;;;;;;;;;;;;;;;;;4876085;29;19987;-72
2022/08/04 16:37:06;;;;;;;;;;;;;;;;;;4889935;29;19928;-71
2022/08/04 16:39:33;;;;;;;;;;;;;;;;;;4889377;29;19928;-72
2022/08/04 16:42:17;;;;;;;;;;;;;;;;;;4898376;29;19931;-72
2022/08/04 16:44:44;;;;;;;;;;;;;;;;;;4890717;29;19935;-71
2022/08/04 16:47:19;;;;;;;;;;;;;;;;;;4897569;29;19931;-72
2022/08/04 16:49:48;;;;;;;;;;;;;;;;;;4873301;29;19928;-71
2022/08/04 16:52:16;;;;;;;;;;;;;;;;;;4886513;29;19928;-72
2022/08/04 16:54:43;;;;;;;;;;;;;;;;;;4891219;29;19935;-72
2022/08/04 16:57:11;;;;;;;;;;;;;;;;;;4887190;29;19978;-72
2022/08/04 16:59:38;;;;;;;;;;;;;;;;;;4888853;29;19966;-72
2022/08/04 17:02:05;;;;;;;;;;;;;;;;;;4881407;29;19931;-71
2022/08/04 17:04:33;;;;;;;;;;;;;;;;;;4886151;29;19939;-71
2022/08/04 17:07:00;;;;;;;;;;;;;;;;;;4886997;29;19979;-72
2022/08/04 17:09:27;;;;;;;;;;;;;;;;;;4885342;29;19927;-71
2022/08/04 17:11:55;;;;;;;;;;;;;;;;;;4883098;29;19991;-72